sensor_id;sensor_type;location;lat;lon;timestamp;P1;durP1;ratioP1;P2;durP2;ratioP2
19163;SDS011;9714;51.208;4.242;2023-10-13T00:02:15;3.53;;;1.30;;
19163;SDS011;9714;51.208;4.242;2023-10-13T00:04:50;5.00;;;1.53;;
19163;SDS011;9714;51.208;4.242;2023-10-13T00:07:19;8.13;;;1.00;;
19163;SDS011;9714;51.208;4.242;2023-10-13T00:09:50;5.07;;;1.60;;
19163;SDS011;9714;51.208;4.242;2023-10-13T00:12:20;5.57;;;1.27;;
19163;SDS011;9714;51.208;4.242;2023-10-13T00:14:49;4.77;;;1.27;;
19163;SDS011;9714;51.208;4.242;2023-10-13T00:17:18;8.00;;;1.40;;
19163;SDS011;9714;51.208;4.242;2023-10-13T00:19:49;6.03;;;1.93;;
19163;SDS011;9714;51.208;4.242;2023-10-13T00:24:48;8.07;;;1.67;;
19163;SDS011;9714;51.208;4.242;2023-10-13T00:27:25;6.60;;;1.53;;
19163;SDS011;9714;51.208;4.242;2023-10-13T00:29:56;8.10;;;1.60;;
19163;SDS011;9714;51.208;4.242;2023-10-13T00:32:48;5.65;;;1.35;;
19163;SDS011;9714;51.208;4.242;2023-10-13T00:35:21;5.47;;;1.25;;
19163;SDS011;9714;51.208;4.242;2023-10-13T00:37:53;5.57;;;1.57;;
19163;SDS011;9714;51.208;4.242;2023-10-13T00:40:22;6.97;;;2.03;;
19163;SDS011;9714;51.208;4.242;2023-10-13T00:43:12;6.70;;;1.90;;
19163;SDS011;9714;51.208;4.242;2023-10-13T00:46:01;7.03;;;1.73;;
19163;SDS011;9714;51.208;4.242;2023-10-13T00:48:39;9.77;;;1.53;;
19163;SDS011;9714;51.208;4.242;2023-10-13T00:51:17;7.97;;;1.73;;
19163;SDS011;9714;51.208;4.242;2023-10-13T00:53:59;7.43;;;2.17;;
19163;SDS011;9714;51.208;4.242;2023-10-13T00:56:33;8.23;;;2.80;;
19163;SDS011;9714;51.208;4.242;2023-10-13T00:59:14;10.23;;;2.03;;
19163;SDS011;9714;51.208;4.242;2023-10-13T01:01:42;7.47;;;1.80;;
19163;SDS011;9714;51.208;4.242;2023-10-13T01:04:09;7.30;;;1.67;;
19163;SDS011;9714;51.208;4.242;2023-10-13T01:06:40;11.50;;;2.33;;
19163;SDS011;9714;51.208;4.242;2023-10-13T01:09:08;5.27;;;1.73;;
19163;SDS011;9714;51.208;4.242;2023-10-13T01:11:42;6.00;;;2.00;;
19163;SDS011;9714;51.208;4.242;2023-10-13T01:14:10;7.90;;;2.20;;
19163;SDS011;9714;51.208;4.242;2023-10-13T01:16:41;7.28;;;1.67;;
19163;SDS011;9714;51.208;4.242;2023-10-13T01:19:10;5.90;;;1.98;;
19163;SDS011;9714;51.208;4.242;2023-10-13T01:21:39;11.10;;;2.13;;
19163;SDS011;9714;51.208;4.242;2023-10-13T01:24:07;6.00;;;1.87;;
19163;SDS011;9714;51.208;4.242;2023-10-13T01:26:38;6.03;;;2.05;;
19163;SDS011;9714;51.208;4.242;2023-10-13T01:29:06;7.40;;;2.27;;
19163;SDS011;9714;51.208;4.242;2023-10-13T01:31:41;9.00;;;2.30;;
19163;SDS011;9714;51.208;4.242;2023-10-13T01:34:11;9.87;;;2.23;;
19163;SDS011;9714;51.208;4.242;2023-10-13T01:36:44;8.27;;;2.00;;
19163;SDS011;9714;51.208;4.242;2023-10-13T01:39:12;11.00;;;2.40;;
19163;SDS011;9714;51.208;4.242;2023-10-13T01:41:42;7.17;;;2.37;;
19163;SDS011;9714;51.208;4.242;2023-10-13T01:44:08;9.07;;;2.50;;
19163;SDS011;9714;51.208;4.242;2023-10-13T01:46:37;5.03;;;2.20;;
19163;SDS011;9714;51.208;4.242;2023-10-13T01:49:04;8.70;;;2.77;;
19163;SDS011;9714;51.208;4.242;2023-10-13T01:51:33;9.27;;;2.50;;
19163;SDS011;9714;51.208;4.242;2023-10-13T01:53:59;5.77;;;2.27;;
19163;SDS011;9714;51.208;4.242;2023-10-13T01:56:29;6.83;;;2.70;;
19163;SDS011;9714;51.208;4.242;2023-10-13T01:58:56;10.80;;;2.50;;
19163;SDS011;9714;51.208;4.242;2023-10-13T02:01:24;10.33;;;2.93;;
19163;SDS011;9714;51.208;4.242;2023-10-13T02:03:59;9.47;;;2.83;;
19163;SDS011;9714;51.208;4.242;2023-10-13T02:06:27;9.13;;;3.40;;
19163;SDS011;9714;51.208;4.242;2023-10-13T02:08:59;7.57;;;3.20;;
19163;SDS011;9714;51.208;4.242;2023-10-13T02:11:36;12.63;;;3.47;;
19163;SDS011;9714;51.208;4.242;2023-10-13T02:14:05;16.97;;;3.87;;
19163;SDS011;9714;51.208;4.242;2023-10-13T02:16:31;9.63;;;3.87;;
19163;SDS011;9714;51.208;4.242;2023-10-13T02:18:58;14.47;;;4.17;;
19163;SDS011;9714;51.208;4.242;2023-10-13T02:21:29;9.90;;;3.80;;
19163;SDS011;9714;51.208;4.242;2023-10-13T02:23:58;13.23;;;4.20;;
19163;SDS011;9714;51.208;4.242;2023-10-13T02:26:29;15.85;;;4.63;;
19163;SDS011;9714;51.208;4.242;2023-10-13T02:28:59;11.38;;;4.32;;
19163;SDS011;9714;51.208;4.242;2023-10-13T02:31:28;11.63;;;4.40;;
19163;SDS011;9714;51.208;4.242;2023-10-13T02:33:55;13.98;;;4.50;;
19163;SDS011;9714;51.208;4.242;2023-10-13T02:36:21;14.30;;;5.07;;
19163;SDS011;9714;51.208;4.242;2023-10-13T02:39:01;11.98;;;4.93;;
19163;SDS011;9714;51.208;4.242;2023-10-13T02:41:32;14.33;;;5.27;;
19163;SDS011;9714;51.208;4.242;2023-10-13T02:44:04;13.63;;;6.25;;
19163;SDS011;9714;51.208;4.242;2023-10-13T02:46:31;13.77;;;6.30;;
19163;SDS011;9714;51.208;4.242;2023-10-13T02:49:01;17.40;;;6.73;;
19163;SDS011;9714;51.208;4.242;2023-10-13T02:51:34;17.33;;;7.73;;
19163;SDS011;9714;51.208;4.242;2023-10-13T02:54:03;18.60;;;7.75;;
19163;SDS011;9714;51.208;4.242;2023-10-13T02:56:35;19.05;;;8.02;;
19163;SDS011;9714;51.208;4.242;2023-10-13T02:59:01;17.70;;;7.88;;
19163;SDS011;9714;51.208;4.242;2023-10-13T03:01:31;17.60;;;8.37;;
19163;SDS011;9714;51.208;4.242;2023-10-13T03:03:59;21.80;;;8.77;;
19163;SDS011;9714;51.208;4.242;2023-10-13T03:06:28;22.13;;;8.93;;
19163;SDS011;9714;51.208;4.242;2023-10-13T03:08:57;15.83;;;7.43;;
19163;SDS011;9714;51.208;4.242;2023-10-13T03:11:38;20.30;;;8.47;;
19163;SDS011;9714;51.208;4.242;2023-10-13T03:14:09;19.17;;;8.68;;
19163;SDS011;9714;51.208;4.242;2023-10-13T03:16:49;18.02;;;7.50;;
19163;SDS011;9714;51.208;4.242;2023-10-13T03:19:18;18.80;;;8.73;;
19163;SDS011;9714;51.208;4.242;2023-10-13T03:21:45;15.33;;;7.87;;
19163;SDS011;9714;51.208;4.242;2023-10-13T03:24:20;18.40;;;7.47;;
19163;SDS011;9714;51.208;4.242;2023-10-13T03:26:58;13.88;;;6.60;;
19163;SDS011;9714;51.208;4.242;2023-10-13T03:29:26;17.90;;;7.90;;
19163;SDS011;9714;51.208;4.242;2023-10-13T03:31:56;17.17;;;7.07;;
19163;SDS011;9714;51.208;4.242;2023-10-13T03:34:32;17.77;;;6.83;;
19163;SDS011;9714;51.208;4.242;2023-10-13T03:37:00;16.27;;;8.03;;
19163;SDS011;9714;51.208;4.242;2023-10-13T03:39:36;16.90;;;6.97;;
19163;SDS011;9714;51.208;4.242;2023-10-13T03:42:03;15.73;;;6.10;;
19163;SDS011;9714;51.208;4.242;2023-10-13T03:44:37;17.27;;;6.77;;
19163;SDS011;9714;51.208;4.242;2023-10-13T03:47:04;13.93;;;6.13;;
19163;SDS011;9714;51.208;4.242;2023-10-13T03:49:43;13.97;;;6.87;;
19163;SDS011;9714;51.208;4.242;2023-10-13T03:52:10;15.50;;;5.70;;
19163;SDS011;9714;51.208;4.242;2023-10-13T03:54:39;12.97;;;5.73;;
19163;SDS011;9714;51.208;4.242;2023-10-13T03:57:06;16.37;;;6.27;;
19163;SDS011;9714;51.208;4.242;2023-10-13T03:59:37;15.73;;;5.73;;
19163;SDS011;9714;51.208;4.242;2023-10-13T04:02:05;16.60;;;5.13;;
19163;SDS011;9714;51.208;4.242;2023-10-13T04:04:38;15.90;;;6.37;;
19163;SDS011;9714;51.208;4.242;2023-10-13T04:07:14;14.93;;;5.73;;
19163;SDS011;9714;51.208;4.242;2023-10-13T04:09:59;14.97;;;5.53;;
19163;SDS011;9714;51.208;4.242;2023-10-13T04:12:43;14.57;;;5.53;;
19163;SDS011;9714;51.208;4.242;2023-10-13T04:15:29;12.47;;;5.23;;
19163;SDS011;9714;51.208;4.242;2023-10-13T04:18:06;12.27;;;4.57;;
19163;SDS011;9714;51.208;4.242;2023-10-13T04:20:58;13.17;;;4.83;;
19163;SDS011;9714;51.208;4.242;2023-10-13T04:23:44;14.97;;;6.03;;
19163;SDS011;9714;51.208;4.242;2023-10-13T04:26:25;12.03;;;5.20;;
19163;SDS011;9714;51.208;4.242;2023-10-13T04:29:03;11.37;;;5.17;;
19163;SDS011;9714;51.208;4.242;2023-10-13T04:31:37;13.60;;;5.20;;
19163;SDS011;9714;51.208;4.242;2023-10-13T04:34:26;12.60;;;4.97;;
19163;SDS011;9714;51.208;4.242;2023-10-13T04:37:00;13.43;;;4.70;;
19163;SDS011;9714;51.208;4.242;2023-10-13T04:39:48;15.50;;;4.90;;
19163;SDS011;9714;51.208;4.242;2023-10-13T04:42:22;10.73;;;4.67;;
19163;SDS011;9714;51.208;4.242;2023-10-13T04:45:05;12.13;;;4.90;;
19163;SDS011;9714;51.208;4.242;2023-10-13T04:47:54;13.32;;;4.72;;
19163;SDS011;9714;51.208;4.242;2023-10-13T04:50:39;14.05;;;4.63;;
19163;SDS011;9714;51.208;4.242;2023-10-13T04:53:10;11.80;;;4.43;;
19163;SDS011;9714;51.208;4.242;2023-10-13T04:55:53;9.15;;;4.25;;
19163;SDS011;9714;51.208;4.242;2023-10-13T04:58:33;11.85;;;5.20;;
19163;SDS011;9714;51.208;4.242;2023-10-13T05:01:16;10.48;;;4.97;;
19163;SDS011;9714;51.208;4.242;2023-10-13T05:04:11;13.85;;;5.28;;
19163;SDS011;9714;51.208;4.242;2023-10-13T05:06:52;12.50;;;4.40;;
19163;SDS011;9714;51.208;4.242;2023-10-13T05:09:36;12.10;;;4.65;;
19163;SDS011;9714;51.208;4.242;2023-10-13T05:12:20;21.15;;;5.18;;
19163;SDS011;9714;51.208;4.242;2023-10-13T05:15:04;17.17;;;5.38;;
19163;SDS011;9714;51.208;4.242;2023-10-13T05:17:49;17.60;;;4.40;;
19163;SDS011;9714;51.208;4.242;2023-10-13T05:20:36;14.02;;;4.53;;
19163;SDS011;9714;51.208;4.242;2023-10-13T05:23:20;14.60;;;5.00;;
19163;SDS011;9714;51.208;4.242;2023-10-13T05:26:05;11.65;;;4.60;;
19163;SDS011;9714;51.208;4.242;2023-10-13T05:28:50;11.90;;;4.82;;
19163;SDS011;9714;51.208;4.242;2023-10-13T05:31:34;15.85;;;5.07;;
19163;SDS011;9714;51.208;4.242;2023-10-13T05:34:19;14.35;;;4.68;;
19163;SDS011;9714;51.208;4.242;2023-10-13T05:37:04;14.80;;;4.47;;
19163;SDS011;9714;51.208;4.242;2023-10-13T05:39:49;15.70;;;4.88;;
19163;SDS011;9714;51.208;4.242;2023-10-13T05:42:33;12.13;;;4.75;;
19163;SDS011;9714;51.208;4.242;2023-10-13T05:45:18;13.25;;;4.60;;
19163;SDS011;9714;51.208;4.242;2023-10-13T05:48:05;14.50;;;4.55;;
19163;SDS011;9714;51.208;4.242;2023-10-13T05:50:38;12.77;;;4.70;;
19163;SDS011;9714;51.208;4.242;2023-10-13T05:53:45;14.07;;;4.05;;
19163;SDS011;9714;51.208;4.242;2023-10-13T05:56:29;13.05;;;4.10;;
19163;SDS011;9714;51.208;4.242;2023-10-13T05:59:14;10.15;;;3.95;;
19163;SDS011;9714;51.208;4.242;2023-10-13T06:01:58;10.55;;;3.88;;
19163;SDS011;9714;51.208;4.242;2023-10-13T06:04:42;15.05;;;3.85;;
19163;SDS011;9714;51.208;4.242;2023-10-13T06:07:35;15.02;;;4.53;;
19163;SDS011;9714;51.208;4.242;2023-10-13T06:10:21;10.85;;;4.50;;
19163;SDS011;9714;51.208;4.242;2023-10-13T06:13:06;12.52;;;4.70;;
19163;SDS011;9714;51.208;4.242;2023-10-13T06:15:50;12.80;;;4.25;;
19163;SDS011;9714;51.208;4.242;2023-10-13T06:18:34;12.48;;;4.18;;
19163;SDS011;9714;51.208;4.242;2023-10-13T06:21:19;10.82;;;4.40;;
19163;SDS011;9714;51.208;4.242;2023-10-13T06:24:04;17.92;;;4.30;;
19163;SDS011;9714;51.208;4.242;2023-10-13T06:26:50;14.60;;;4.55;;
19163;SDS011;9714;51.208;4.242;2023-10-13T06:29:35;11.35;;;4.07;;
19163;SDS011;9714;51.208;4.242;2023-10-13T06:32:02;13.30;;;3.13;;
19163;SDS011;9714;51.208;4.242;2023-10-13T06:34:35;12.20;;;4.65;;
19163;SDS011;9714;51.208;4.242;2023-10-13T06:37:10;10.80;;;3.65;;
19163;SDS011;9714;51.208;4.242;2023-10-13T06:39:49;13.18;;;3.80;;
19163;SDS011;9714;51.208;4.242;2023-10-13T06:42:18;10.68;;;4.07;;
19163;SDS011;9714;51.208;4.242;2023-10-13T06:44:46;11.18;;;3.25;;
19163;SDS011;9714;51.208;4.242;2023-10-13T06:47:13;18.75;;;4.30;;
19163;SDS011;9714;51.208;4.242;2023-10-13T06:49:40;12.68;;;3.72;;
19163;SDS011;9714;51.208;4.242;2023-10-13T06:52:08;14.98;;;3.83;;
19163;SDS011;9714;51.208;4.242;2023-10-13T06:54:37;10.95;;;3.47;;
19163;SDS011;9714;51.208;4.242;2023-10-13T06:57:07;16.90;;;4.22;;
19163;SDS011;9714;51.208;4.242;2023-10-13T06:59:40;17.73;;;4.05;;
19163;SDS011;9714;51.208;4.242;2023-10-13T07:02:08;13.40;;;3.38;;
19163;SDS011;9714;51.208;4.242;2023-10-13T07:04:45;9.43;;;3.95;;
19163;SDS011;9714;51.208;4.242;2023-10-13T07:07:12;17.75;;;3.83;;
19163;SDS011;9714;51.208;4.242;2023-10-13T07:09:41;14.05;;;4.30;;
19163;SDS011;9714;51.208;4.242;2023-10-13T07:12:14;16.15;;;3.67;;
19163;SDS011;9714;51.208;4.242;2023-10-13T07:14:48;13.65;;;3.97;;
19163;SDS011;9714;51.208;4.242;2023-10-13T07:17:18;14.40;;;3.38;;
19163;SDS011;9714;51.208;4.242;2023-10-13T07:19:50;15.68;;;4.63;;
19163;SDS011;9714;51.208;4.242;2023-10-13T07:22:31;8.20;;;3.28;;
19163;SDS011;9714;51.208;4.242;2023-10-13T07:25:05;13.07;;;3.55;;
19163;SDS011;9714;51.208;4.242;2023-10-13T07:27:32;11.98;;;3.80;;
19163;SDS011;9714;51.208;4.242;2023-10-13T07:30:02;15.18;;;3.67;;
19163;SDS011;9714;51.208;4.242;2023-10-13T07:32:39;11.45;;;3.90;;
19163;SDS011;9714;51.208;4.242;2023-10-13T07:35:14;15.57;;;4.75;;
19163;SDS011;9714;51.208;4.242;2023-10-13T07:37:50;6.70;;;2.88;;
19163;SDS011;9714;51.208;4.242;2023-10-13T07:40:20;10.15;;;3.45;;
19163;SDS011;9714;51.208;4.242;2023-10-13T07:43:04;8.88;;;3.53;;
19163;SDS011;9714;51.208;4.242;2023-10-13T07:45:38;12.98;;;3.05;;
19163;SDS011;9714;51.208;4.242;2023-10-13T07:48:07;8.70;;;2.88;;
19163;SDS011;9714;51.208;4.242;2023-10-13T07:50:42;10.05;;;3.83;;
19163;SDS011;9714;51.208;4.242;2023-10-13T07:53:10;11.48;;;3.53;;
19163;SDS011;9714;51.208;4.242;2023-10-13T07:55:47;14.55;;;3.67;;
19163;SDS011;9714;51.208;4.242;2023-10-13T07:58:19;9.93;;;2.83;;
19163;SDS011;9714;51.208;4.242;2023-10-13T08:00:51;9.65;;;3.65;;
19163;SDS011;9714;51.208;4.242;2023-10-13T08:03:31;14.13;;;3.38;;
19163;SDS011;9714;51.208;4.242;2023-10-13T08:11:25;9.38;;;3.30;;
19163;SDS011;9714;51.208;4.242;2023-10-13T08:13:59;14.18;;;3.63;;
19163;SDS011;9714;51.208;4.242;2023-10-13T08:16:37;16.50;;;3.53;;
19163;SDS011;9714;51.208;4.242;2023-10-13T08:19:19;17.02;;;3.17;;
19163;SDS011;9714;51.208;4.242;2023-10-13T08:21:52;12.20;;;3.35;;
19163;SDS011;9714;51.208;4.242;2023-10-13T08:24:22;18.67;;;5.90;;
19163;SDS011;9714;51.208;4.242;2023-10-13T08:26:54;8.77;;;2.80;;
19163;SDS011;9714;51.208;4.242;2023-10-13T08:29:43;12.23;;;3.88;;
19163;SDS011;9714;51.208;4.242;2023-10-13T08:32:35;10.73;;;2.80;;
19163;SDS011;9714;51.208;4.242;2023-10-13T08:35:11;12.25;;;3.88;;
19163;SDS011;9714;51.208;4.242;2023-10-13T08:37:52;15.65;;;4.03;;
19163;SDS011;9714;51.208;4.242;2023-10-13T08:40:30;10.68;;;3.67;;
19163;SDS011;9714;51.208;4.242;2023-10-13T08:43:31;12.85;;;3.60;;
19163;SDS011;9714;51.208;4.242;2023-10-13T08:46:08;10.60;;;3.42;;
19163;SDS011;9714;51.208;4.242;2023-10-13T08:48:51;12.00;;;3.53;;
19163;SDS011;9714;51.208;4.242;2023-10-13T08:51:30;15.60;;;3.85;;
19163;SDS011;9714;51.208;4.242;2023-10-13T08:54:14;12.02;;;3.40;;
19163;SDS011;9714;51.208;4.242;2023-10-13T08:56:59;13.95;;;3.38;;
19163;SDS011;9714;51.208;4.242;2023-10-13T08:59:45;11.43;;;3.67;;
19163;SDS011;9714;51.208;4.242;2023-10-13T09:02:18;12.45;;;3.13;;
19163;SDS011;9714;51.208;4.242;2023-10-13T09:05:10;10.65;;;3.30;;
19163;SDS011;9714;51.208;4.242;2023-10-13T09:07:52;15.60;;;3.75;;
19163;SDS011;9714;51.208;4.242;2023-10-13T09:10:21;15.23;;;3.58;;
19163;SDS011;9714;51.208;4.242;2023-10-13T09:12:58;10.15;;;3.33;;
19163;SDS011;9714;51.208;4.242;2023-10-13T09:15:28;10.65;;;3.08;;
19163;SDS011;9714;51.208;4.242;2023-10-13T09:18:10;15.60;;;3.55;;
19163;SDS011;9714;51.208;4.242;2023-10-13T09:20:41;13.32;;;3.42;;
19163;SDS011;9714;51.208;4.242;2023-10-13T09:23:11;16.80;;;3.28;;
19163;SDS011;9714;51.208;4.242;2023-10-13T09:25:50;14.88;;;3.60;;
19163;SDS011;9714;51.208;4.242;2023-10-13T09:28:23;10.27;;;3.10;;
19163;SDS011;9714;51.208;4.242;2023-10-13T09:30:53;15.13;;;3.72;;
19163;SDS011;9714;51.208;4.242;2023-10-13T09:33:22;17.52;;;3.75;;
19163;SDS011;9714;51.208;4.242;2023-10-13T09:35:59;9.80;;;3.65;;
19163;SDS011;9714;51.208;4.242;2023-10-13T09:38:26;17.58;;;3.38;;
19163;SDS011;9714;51.208;4.242;2023-10-13T09:40:54;8.65;;;3.15;;
19163;SDS011;9714;51.208;4.242;2023-10-13T09:43:27;13.95;;;4.10;;
19163;SDS011;9714;51.208;4.242;2023-10-13T09:45:56;12.73;;;3.33;;
19163;SDS011;9714;51.208;4.242;2023-10-13T09:48:31;16.15;;;4.60;;
19163;SDS011;9714;51.208;4.242;2023-10-13T09:51:01;20.27;;;4.15;;
19163;SDS011;9714;51.208;4.242;2023-10-13T09:53:34;18.25;;;3.90;;
19163;SDS011;9714;51.208;4.242;2023-10-13T09:56:06;11.95;;;4.30;;
19163;SDS011;9714;51.208;4.242;2023-10-13T09:58:42;10.45;;;3.60;;
19163;SDS011;9714;51.208;4.242;2023-10-13T10:01:19;15.73;;;4.78;;
19163;SDS011;9714;51.208;4.242;2023-10-13T10:04:06;18.85;;;3.95;;
19163;SDS011;9714;51.208;4.242;2023-10-13T10:06:35;11.07;;;2.70;;
19163;SDS011;9714;51.208;4.242;2023-10-13T10:09:10;11.77;;;3.67;;
19163;SDS011;9714;51.208;4.242;2023-10-13T10:11:44;15.38;;;3.83;;
19163;SDS011;9714;51.208;4.242;2023-10-13T10:14:24;11.57;;;3.47;;
19163;SDS011;9714;51.208;4.242;2023-10-13T10:17:07;14.55;;;3.47;;
19163;SDS011;9714;51.208;4.242;2023-10-13T10:19:33;16.58;;;3.65;;
19163;SDS011;9714;51.208;4.242;2023-10-13T10:22:26;13.38;;;3.05;;
19163;SDS011;9714;51.208;4.242;2023-10-13T10:24:58;13.65;;;3.45;;
19163;SDS011;9714;51.208;4.242;2023-10-13T10:27:27;11.52;;;3.45;;
19163;SDS011;9714;51.208;4.242;2023-10-13T10:29:55;17.00;;;4.05;;
19163;SDS011;9714;51.208;4.242;2023-10-13T10:32:31;20.02;;;4.68;;
19163;SDS011;9714;51.208;4.242;2023-10-13T10:35:06;10.55;;;3.58;;
19163;SDS011;9714;51.208;4.242;2023-10-13T10:37:41;15.90;;;3.75;;
19163;SDS011;9714;51.208;4.242;2023-10-13T10:40:22;13.43;;;4.00;;
19163;SDS011;9714;51.208;4.242;2023-10-13T10:43:11;12.15;;;3.95;;
19163;SDS011;9714;51.208;4.242;2023-10-13T10:45:45;16.42;;;3.40;;
19163;SDS011;9714;51.208;4.242;2023-10-13T10:48:13;17.73;;;3.92;;
19163;SDS011;9714;51.208;4.242;2023-10-13T10:50:43;11.75;;;4.03;;
19163;SDS011;9714;51.208;4.242;2023-10-13T10:53:20;13.10;;;3.88;;
19163;SDS011;9714;51.208;4.242;2023-10-13T10:56:03;10.48;;;3.00;;
19163;SDS011;9714;51.208;4.242;2023-10-13T10:58:33;12.48;;;3.75;;
19163;SDS011;9714;51.208;4.242;2023-10-13T11:01:09;10.65;;;4.03;;
19163;SDS011;9714;51.208;4.242;2023-10-13T11:03:37;13.25;;;3.75;;
19163;SDS011;9714;51.208;4.242;2023-10-13T11:06:11;13.18;;;3.55;;
19163;SDS011;9714;51.208;4.242;2023-10-13T11:08:44;16.42;;;3.80;;
19163;SDS011;9714;51.208;4.242;2023-10-13T11:11:16;14.93;;;3.75;;
19163;SDS011;9714;51.208;4.242;2023-10-13T11:13:55;14.68;;;4.22;;
19163;SDS011;9714;51.208;4.242;2023-10-13T11:16:44;15.52;;;4.13;;
19163;SDS011;9714;51.208;4.242;2023-10-13T11:19:16;13.65;;;3.00;;
19163;SDS011;9714;51.208;4.242;2023-10-13T11:21:46;13.60;;;3.80;;
19163;SDS011;9714;51.208;4.242;2023-10-13T11:24:15;17.33;;;3.58;;
19163;SDS011;9714;51.208;4.242;2023-10-13T11:26:43;13.63;;;4.28;;
19163;SDS011;9714;51.208;4.242;2023-10-13T11:29:15;16.98;;;4.32;;
19163;SDS011;9714;51.208;4.242;2023-10-13T11:31:45;11.65;;;4.57;;
19163;SDS011;9714;51.208;4.242;2023-10-13T11:34:13;18.45;;;4.43;;
19163;SDS011;9714;51.208;4.242;2023-10-13T11:36:42;19.60;;;4.55;;
19163;SDS011;9714;51.208;4.242;2023-10-13T11:39:09;14.57;;;3.85;;
19163;SDS011;9714;51.208;4.242;2023-10-13T11:41:44;19.27;;;4.50;;
19163;SDS011;9714;51.208;4.242;2023-10-13T11:44:19;17.85;;;4.95;;
19163;SDS011;9714;51.208;4.242;2023-10-13T11:47:08;20.05;;;3.70;;
19163;SDS011;9714;51.208;4.242;2023-10-13T11:49:49;17.58;;;4.15;;
19163;SDS011;9714;51.208;4.242;2023-10-13T11:52:21;16.67;;;4.07;;
19163;SDS011;9714;51.208;4.242;2023-10-13T11:54:51;14.98;;;4.18;;
19163;SDS011;9714;51.208;4.242;2023-10-13T11:57:20;14.43;;;4.60;;
19163;SDS011;9714;51.208;4.242;2023-10-13T11:59:48;14.40;;;3.92;;
19163;SDS011;9714;51.208;4.242;2023-10-13T12:02:44;13.38;;;3.95;;
19163;SDS011;9714;51.208;4.242;2023-10-13T12:05:28;16.58;;;4.45;;
19163;SDS011;9714;51.208;4.242;2023-10-13T12:08:14;16.40;;;4.07;;
19163;SDS011;9714;51.208;4.242;2023-10-13T12:10:47;16.42;;;3.63;;
19163;SDS011;9714;51.208;4.242;2023-10-13T12:13:26;11.13;;;3.90;;
19163;SDS011;9714;51.208;4.242;2023-10-13T12:15:53;13.07;;;3.50;;
19163;SDS011;9714;51.208;4.242;2023-10-13T12:18:22;16.52;;;3.47;;
19163;SDS011;9714;51.208;4.242;2023-10-13T12:20:52;12.43;;;3.70;;
19163;SDS011;9714;51.208;4.242;2023-10-13T12:23:19;13.80;;;3.20;;
19163;SDS011;9714;51.208;4.242;2023-10-13T12:25:56;15.25;;;4.07;;
19163;SDS011;9714;51.208;4.242;2023-10-13T12:28:32;10.93;;;3.17;;
19163;SDS011;9714;51.208;4.242;2023-10-13T12:31:05;17.40;;;4.65;;
19163;SDS011;9714;51.208;4.242;2023-10-13T12:33:36;11.98;;;3.80;;
19163;SDS011;9714;51.208;4.242;2023-10-13T12:36:06;14.60;;;4.07;;
19163;SDS011;9714;51.208;4.242;2023-10-13T12:38:34;17.52;;;4.15;;
19163;SDS011;9714;51.208;4.242;2023-10-13T12:41:37;12.30;;;3.80;;
19163;SDS011;9714;51.208;4.242;2023-10-13T12:44:23;12.77;;;3.35;;
19163;SDS011;9714;51.208;4.242;2023-10-13T12:47:08;11.35;;;3.65;;
19163;SDS011;9714;51.208;4.242;2023-10-13T12:49:52;14.50;;;4.22;;
19163;SDS011;9714;51.208;4.242;2023-10-13T12:52:24;12.38;;;2.97;;
19163;SDS011;9714;51.208;4.242;2023-10-13T12:54:52;9.57;;;3.05;;
19163;SDS011;9714;51.208;4.242;2023-10-13T12:57:32;14.75;;;3.47;;
19163;SDS011;9714;51.208;4.242;2023-10-13T13:00:01;20.83;;;4.40;;
19163;SDS011;9714;51.208;4.242;2023-10-13T13:02:41;14.68;;;3.38;;
19163;SDS011;9714;51.208;4.242;2023-10-13T13:05:08;19.70;;;3.50;;
19163;SDS011;9714;51.208;4.242;2023-10-13T13:07:38;11.35;;;3.58;;
19163;SDS011;9714;51.208;4.242;2023-10-13T13:10:12;16.45;;;4.65;;
19163;SDS011;9714;51.208;4.242;2023-10-13T13:12:39;18.85;;;4.18;;
19163;SDS011;9714;51.208;4.242;2023-10-13T13:15:08;15.50;;;3.35;;
19163;SDS011;9714;51.208;4.242;2023-10-13T13:17:36;16.30;;;3.50;;
19163;SDS011;9714;51.208;4.242;2023-10-13T13:20:05;13.50;;;3.42;;
19163;SDS011;9714;51.208;4.242;2023-10-13T13:22:51;12.57;;;3.65;;
19163;SDS011;9714;51.208;4.242;2023-10-13T13:25:20;11.68;;;4.00;;
19163;SDS011;9714;51.208;4.242;2023-10-13T13:27:51;14.07;;;3.65;;
19163;SDS011;9714;51.208;4.242;2023-10-13T13:30:20;13.00;;;3.10;;
19163;SDS011;9714;51.208;4.242;2023-10-13T13:32:47;17.50;;;4.32;;
19163;SDS011;9714;51.208;4.242;2023-10-13T13:35:15;12.05;;;3.47;;
19163;SDS011;9714;51.208;4.242;2023-10-13T13:37:43;15.30;;;3.28;;
19163;SDS011;9714;51.208;4.242;2023-10-13T13:40:12;13.45;;;2.88;;
19163;SDS011;9714;51.208;4.242;2023-10-13T13:42:41;9.65;;;3.10;;
19163;SDS011;9714;51.208;4.242;2023-10-13T13:45:12;14.02;;;3.10;;
19163;SDS011;9714;51.208;4.242;2023-10-13T13:47:48;10.93;;;3.25;;
19163;SDS011;9714;51.208;4.242;2023-10-13T13:50:19;11.20;;;3.50;;
19163;SDS011;9714;51.208;4.242;2023-10-13T13:52:50;12.13;;;3.50;;
19163;SDS011;9714;51.208;4.242;2023-10-13T13:55:18;10.02;;;3.22;;
19163;SDS011;9714;51.208;4.242;2023-10-13T13:57:45;11.00;;;2.92;;
19163;SDS011;9714;51.208;4.242;2023-10-13T14:00:15;13.02;;;2.78;;
19163;SDS011;9714;51.208;4.242;2023-10-13T14:02:48;14.95;;;4.10;;
19163;SDS011;9714;51.208;4.242;2023-10-13T14:05:16;14.00;;;3.42;;
19163;SDS011;9714;51.208;4.242;2023-10-13T14:07:43;10.57;;;3.70;;
19163;SDS011;9714;51.208;4.242;2023-10-13T14:10:14;14.38;;;3.88;;
19163;SDS011;9714;51.208;4.242;2023-10-13T14:12:56;11.82;;;3.90;;
19163;SDS011;9714;51.208;4.242;2023-10-13T14:15:32;15.57;;;3.55;;
19163;SDS011;9714;51.208;4.242;2023-10-13T14:18:06;18.83;;;3.17;;
19163;SDS011;9714;51.208;4.242;2023-10-13T14:20:39;10.80;;;3.95;;
19163;SDS011;9714;51.208;4.242;2023-10-13T14:23:07;15.23;;;3.45;;
19163;SDS011;9714;51.208;4.242;2023-10-13T14:25:37;8.48;;;3.03;;
19163;SDS011;9714;51.208;4.242;2023-10-13T14:28:09;10.35;;;3.25;;
19163;SDS011;9714;51.208;4.242;2023-10-13T14:30:42;11.48;;;3.00;;
19163;SDS011;9714;51.208;4.242;2023-10-13T14:33:11;12.30;;;3.00;;
19163;SDS011;9714;51.208;4.242;2023-10-13T14:35:38;12.18;;;4.40;;
19163;SDS011;9714;51.208;4.242;2023-10-13T14:38:06;9.98;;;3.58;;
19163;SDS011;9714;51.208;4.242;2023-10-13T14:40:33;15.82;;;4.57;;
19163;SDS011;9714;51.208;4.242;2023-10-13T14:43:01;12.40;;;3.75;;
19163;SDS011;9714;51.208;4.242;2023-10-13T14:45:29;16.60;;;3.92;;
19163;SDS011;9714;51.208;4.242;2023-10-13T14:47:59;11.70;;;3.60;;
19163;SDS011;9714;51.208;4.242;2023-10-13T14:50:27;15.50;;;4.03;;
19163;SDS011;9714;51.208;4.242;2023-10-13T14:52:55;12.85;;;3.35;;
19163;SDS011;9714;51.208;4.242;2023-10-13T14:55:23;17.77;;;4.75;;
19163;SDS011;9714;51.208;4.242;2023-10-13T14:58:03;12.60;;;3.92;;
19163;SDS011;9714;51.208;4.242;2023-10-13T15:00:34;10.77;;;3.10;;
19163;SDS011;9714;51.208;4.242;2023-10-13T15:03:01;11.27;;;3.33;;
19163;SDS011;9714;51.208;4.242;2023-10-13T15:05:36;8.95;;;2.70;;
19163;SDS011;9714;51.208;4.242;2023-10-13T15:08:07;12.75;;;3.08;;
19163;SDS011;9714;51.208;4.242;2023-10-13T15:10:34;10.18;;;3.80;;
19163;SDS011;9714;51.208;4.242;2023-10-13T15:13:02;10.23;;;2.90;;
19163;SDS011;9714;51.208;4.242;2023-10-13T15:15:31;15.43;;;3.85;;
19163;SDS011;9714;51.208;4.242;2023-10-13T15:18:03;11.30;;;3.42;;
19163;SDS011;9714;51.208;4.242;2023-10-13T15:20:31;11.02;;;3.28;;
19163;SDS011;9714;51.208;4.242;2023-10-13T15:23:05;14.65;;;3.80;;
19163;SDS011;9714;51.208;4.242;2023-10-13T15:25:32;10.45;;;2.90;;
19163;SDS011;9714;51.208;4.242;2023-10-13T15:28:15;15.32;;;3.63;;
19163;SDS011;9714;51.208;4.242;2023-10-13T15:30:46;9.25;;;3.45;;
19163;SDS011;9714;51.208;4.242;2023-10-13T15:33:23;15.90;;;3.72;;
19163;SDS011;9714;51.208;4.242;2023-10-13T15:35:51;9.55;;;2.90;;
19163;SDS011;9714;51.208;4.242;2023-10-13T15:38:18;11.48;;;3.08;;
19163;SDS011;9714;51.208;4.242;2023-10-13T15:40:47;10.00;;;3.22;;
19163;SDS011;9714;51.208;4.242;2023-10-13T15:43:19;11.52;;;3.78;;